Time;durP1;ratioP1;P1;durP2;ratioP2;P2;SDS_P1;SDS_P2;PMS_P1;PMS_P2;Temp;Humidity;BMP_temperature;BMP_pressure;BME280_temperature;BME280_humidity;BME280_pressure;Samples;Min_cycle;Max_cycle;Signal;HPM_P1;HPM_P2
2023/12/25 00:00:06;;;;;;;0.45;0.30;;;11.60;39.80;;;;;;5013310;28;20080;-86
2023/12/25 00:02:32;;;;;;;3.10;0.30;;;11.50;99.90;;;;;;5013228;28;20073;-86
2023/12/25 00:04:58;;;;;;;0.65;0.65;;;11.50;99.90;;;;;;5012873;28;20045;-86
2023/12/25 00:07:24;;;;;;;0.10;0.10;;;11.50;99.90;;;;;;4995760;28;20041;-86
2023/12/25 00:09:49;;;;;;;0.00;0.00;;;11.60;63.90;;;;;;5012890;28;20049;-86
2023/12/25 00:12:15;;;;;;;1.30;0.82;;;11.60;99.90;;;;;;5013054;28;20034;-86
2023/12/25 00:14:40;;;;;;;0.32;0.32;;;11.60;72.60;;;;;;5024012;28;20045;-86
2023/12/25 00:17:06;;;;;;;0.00;0.00;;;11.60;1.00;;;;;;5014771;28;20128;-86
2023/12/25 00:19:32;;;;;;;2.28;0.90;;;11.70;99.90;;;;;;5026624;28;20046;-86
2023/12/25 00:21:58;;;;;;;0.13;0.13;;;12.90;1.00;;;;;;5012778;28;20042;-86
2023/12/25 00:24:24;;;;;;;0.75;0.15;;;11.70;99.90;;;;;;5012735;28;20034;-86
2023/12/25 00:26:49;;;;;;;8.48;2.33;;;11.60;1.00;;;;;;5013897;28;20096;-86
2023/12/25 00:29:15;;;;;;;0.80;0.63;;;11.60;1.00;;;;;;5012903;28;20124;-86
2023/12/25 00:31:41;;;;;;;0.40;0.40;;;11.60;1.00;;;;;;5012960;28;20500;-87
2023/12/25 00:34:07;;;;;;;2.38;0.88;;;11.60;1.00;;;;;;4998210;28;20041;-86
2023/12/25 00:36:33;;;;;;;8.68;2.17;;;11.60;99.90;;;;;;5004881;28;20099;-86
2023/12/25 00:38:59;;;;;;;0.73;0.68;;;11.70;4.20;;;;;;5012627;28;20042;-86
2023/12/25 00:41:30;;;;;;;0.10;0.10;;;11.70;99.90;;;;;;5012692;28;20535;-86
2023/12/25 00:43:56;;;;;;;0.10;0.10;;;11.70;99.90;;;;;;5013064;28;20053;-86
2023/12/25 00:46:22;;;;;;;0.32;0.30;;;11.70;99.90;;;;;;5013098;28;20052;-86
2023/12/25 00:48:47;;;;;;;0.52;0.52;;;11.70;99.90;;;;;;5015993;28;20033;-86
2023/12/25 00:51:13;;;;;;;0.35;0.30;;;11.70;1.00;;;;;;5016348;28;20100;-86
2023/12/25 00:53:38;;;;;;;0.00;0.00;;;11.70;1.00;;;;;;5016150;28;20129;-85
2023/12/25 00:56:05;;;;;;;0.00;0.00;;;11.70;1.00;;;;;;5016086;28;20042;-85
2023/12/25 00:58:30;;;;;;;0.20;0.20;;;11.50;99.90;;;;;;5016066;28;20038;-85
2023/12/25 01:00:56;;;;;;;0.57;0.28;;;11.50;99.90;;;;;;5017091;28;20046;-85
2023/12/25 01:03:22;;;;;;;0.15;0.15;;;11.40;99.90;;;;;;5016344;28;20045;-86
2023/12/25 01:05:47;;;;;;;0.00;0.00;;;11.40;99.90;;;;;;5005855;28;20084;-85
2023/12/25 01:08:13;;;;;;;8.52;1.55;;;11.40;99.90;;;;;;5016213;28;20049;-85
2023/12/25 01:10:39;;;;;;;0.63;0.28;;;11.40;38.20;;;;;;5016638;28;20058;-85
2023/12/25 01:13:04;;;;;;;0.00;0.00;;;11.30;84.60;;;;;;5016402;28;20731;-85
2023/12/25 01:15:30;;;;;;;1.35;0.90;;;11.40;1.00;;;;;;5017744;28;20045;-85
2023/12/25 01:17:55;;;;;;;2.83;1.05;;;11.30;1.00;;;;;;5018268;28;20049;-85
2023/12/25 01:20:21;;;;;;;0.40;0.35;;;11.30;1.00;;;;;;5016031;28;20044;-85
2023/12/25 01:22:47;;;;;;;0.00;0.00;;;11.20;1.00;;;;;;4998286;28;20121;-85
2023/12/25 01:25:13;;;;;;;0.30;0.30;;;11.30;1.00;;;;;;5023585;28;20505;-85
2023/12/25 01:27:41;;;;;;;0.30;0.15;;;11.30;1.00;;;;;;5018256;28;20096;-85
2023/12/25 01:30:09;;;;;;;0.17;0.17;;;11.20;1.00;;;;;;5015797;28;20106;-85
2023/12/25 01:32:34;;;;;;;0.00;0.00;;;11.30;99.90;;;;;;5019726;28;20495;-86
2023/12/25 01:35:00;;;;;;;0.15;0.15;;;11.30;99.90;;;;;;5015455;28;20045;-85
2023/12/25 01:37:25;;;;;;;0.90;0.43;;;11.30;99.90;;;;;;5015106;28;20038;-85
2023/12/25 01:39:51;;;;;;;0.20;0.15;;;11.30;99.90;;;;;;4997843;28;20069;-85
2023/12/25 01:42:16;;;;;;;0.47;0.32;;;11.30;99.90;;;;;;5015998;28;20042;-85
2023/12/25 01:44:42;;;;;;;0.25;0.25;;;11.20;1.00;;;;;;5015549;28;20046;-85
2023/12/25 01:47:08;;;;;;;0.82;0.50;;;11.20;99.90;;;;;;5022002;28;20488;-85
2023/12/25 01:49:34;;;;;;;0.00;0.00;;;11.40;99.90;;;;;;5021592;28;20469;-85
2023/12/25 01:51:59;;;;;;;1.48;1.10;;;11.10;1.00;;;;;;5015627;28;20057;-85
2023/12/25 01:54:25;;;;;;;0.22;0.22;;;11.10;1.00;;;;;;4997846;28;20038;-85
2023/12/25 01:56:51;;;;;;;0.80;0.80;;;11.00;1.00;;;;;;5019832;28;20041;-85
2023/12/25 01:59:16;;;;;;;0.20;0.20;;;11.00;1.00;;;;;;5014099;28;20121;-86
2023/12/25 02:01:42;;;;;;;0.00;0.00;;;11.00;1.00;;;;;;4998143;28;20560;-85
2023/12/25 02:04:08;;;;;;;0.55;0.55;;;11.10;99.90;;;;;;5023234;28;20041;-86
2023/12/25 02:06:35;;;;;;;0.00;0.00;;;11.10;99.90;;;;;;5021294;28;20041;-85
2023/12/25 02:09:02;;;;;;;0.05;0.05;;;11.00;99.90;;;;;;5015504;28;20587;-85
2023/12/25 02:11:28;;;;;;;0.00;0.00;;;11.00;99.90;;;;;;5013714;28;20085;-85
2023/12/25 02:13:56;;;;;;;0.00;0.00;;;10.90;99.90;;;;;;5014279;28;20080;-85
2023/12/25 02:16:23;;;;;;;4.45;1.50;;;10.80;1.00;;;;;;5013958;28;20069;-85
2023/12/25 02:18:50;;;;;;;1.33;0.55;;;10.90;99.90;;;;;;5014750;28;20048;-85
2023/12/25 02:21:16;;;;;;;0.10;0.10;;;10.90;99.90;;;;;;5013691;28;20046;-85
2023/12/25 02:23:45;;;;;;;0.57;0.57;;;10.90;99.90;;;;;;4997901;28;20060;-85
2023/12/25 02:26:12;;;;;;;0.35;0.20;;;10.80;1.00;;;;;;5015708;28;20038;-85
2023/12/25 02:28:38;;;;;;;0.00;0.00;;;10.80;1.00;;;;;;5014671;28;20539;-85
2023/12/25 02:31:05;;;;;;;3.75;1.15;;;10.70;1.00;;;;;;4997084;28;20045;-86
2023/12/25 02:33:31;;;;;;;0.17;0.17;;;10.70;1.00;;;;;;5014936;28;20403;-85
2023/12/25 02:35:56;;;;;;;0.00;0.00;;;10.80;1.00;;;;;;5014407;28;20194;-85
2023/12/25 02:38:22;;;;;;;3.53;0.68;;;10.70;1.00;;;;;;5015049;28;20180;-85
2023/12/25 02:40:48;;;;;;;0.90;0.40;;;10.80;11.50;;;;;;4996918;28;20042;-85
2023/12/25 02:43:13;;;;;;;0.43;0.35;;;10.90;1.00;;;;;;5014738;28;20137;-85
2023/12/25 02:45:39;;;;;;;2.40;1.35;;;11.00;1.00;;;;;;5013914;28;20042;-86
2023/12/25 02:48:05;;;;;;;0.00;0.00;;;11.10;1.00;;;;;;5014286;28;20495;-86
2023/12/25 02:50:31;;;;;;;0.00;0.00;;;11.10;1.00;;;;;;5018607;28;20061;-85
2023/12/25 02:52:56;;;;;;;0.08;0.08;;;11.20;1.00;;;;;;5014887;28;20533;-85
2023/12/25 02:55:22;;;;;;;0.00;0.00;;;11.20;1.00;;;;;;5014586;28;20050;-85
2023/12/25 02:57:48;;;;;;;0.00;0.00;;;11.10;1.00;;;;;;5014407;28;20038;-85
2023/12/25 03:00:14;;;;;;;0.20;0.20;;;11.00;1.00;;;;;;5014078;28;20033;-86
2023/12/25 03:02:40;;;;;;;0.00;0.00;;;11.10;1.00;;;;;;5014509;28;20073;-85
2023/12/25 03:05:06;;;;;;;0.38;0.38;;;11.10;1.00;;;;;;5014145;28;20077;-85
2023/12/25 03:07:31;;;;;;;3.50;0.65;;;11.10;99.90;;;;;;5014444;28;20122;-85
2023/12/25 03:09:57;;;;;;;1.60;0.57;;;11.30;99.90;;;;;;4996421;28;20380;-85
2023/12/25 03:12:22;;;;;;;0.00;0.00;;;11.20;99.90;;;;;;5019760;28;20045;-86
2023/12/25 03:14:48;;;;;;;0.00;0.00;;;11.20;99.90;;;;;;5024102;28;20065;-85
2023/12/25 03:17:13;;;;;;;0.13;0.10;;;11.20;99.90;;;;;;5013796;28;20104;-85
2023/12/25 03:19:39;;;;;;;0.10;0.10;;;11.10;99.90;;;;;;5013715;28;20042;-85
2023/12/25 03:22:04;;;;;;;0.00;0.00;;;11.00;99.90;;;;;;5014270;28;20045;-85
2023/12/25 03:24:30;;;;;;;2.70;1.58;;;11.00;99.90;;;;;;5014425;28;20049;-85
2023/12/25 03:26:56;;;;;;;0.00;0.00;;;11.00;99.90;;;;;;5020472;28;20479;-85
2023/12/25 03:29:21;;;;;;;17.27;1.95;;;11.00;99.90;;;;;;5014083;28;20034;-85
2023/12/25 03:31:47;;;;;;;2.85;0.93;;;11.10;99.90;;;;;;5014072;28;20046;-85
2023/12/25 03:34:17;;;;;;;0.00;0.00;;;11.00;99.90;;;;;;5014178;28;20372;-85
2023/12/25 03:36:43;;;;;;;4.68;1.10;;;11.00;99.90;;;;;;5020470;28;20492;-85
2023/12/25 03:39:08;;;;;;;0.00;0.00;;;11.00;99.90;;;;;;5015432;28;20053;-85
2023/12/25 03:41:34;;;;;;;2.72;1.20;;;11.10;99.90;;;;;;5014970;28;20521;-85
2023/12/25 03:43:59;;;;;;;1.45;0.70;;;11.00;99.90;;;;;;5015641;28;20050;-85
2023/12/25 03:46:25;;;;;;;9.30;0.35;;;10.90;99.90;;;;;;5015046;28;20052;-85
2023/12/25 03:48:50;;;;;;;0.00;0.00;;;10.80;99.90;;;;;;5015092;28;20049;-85
2023/12/25 03:51:16;;;;;;;0.00;0.00;;;10.80;99.90;;;;;;5016953;28;20096;-85
2023/12/25 03:53:42;;;;;;;0.00;0.00;;;10.90;99.90;;;;;;5015218;28;20042;-86
2023/12/25 03:56:08;;;;;;;0.00;0.00;;;10.80;99.90;;;;;;5016063;28;20481;-85
2023/12/25 03:58:34;;;;;;;0.10;0.10;;;10.80;99.90;;;;;;5015438;28;20043;-85
2023/12/25 04:01:01;;;;;;;0.70;0.47;;;10.90;99.90;;;;;;5014005;28;20484;-85
2023/12/25 04:03:26;;;;;;;0.00;0.00;;;10.90;99.90;;;;;;5016013;28;20034;-85
2023/12/25 04:05:52;;;;;;;0.65;0.45;;;10.90;99.90;;;;;;5014831;28;20106;-85
2023/12/25 04:08:17;;;;;;;0.40;0.28;;;10.80;99.90;;;;;;5014972;28;20105;-85
2023/12/25 04:10:43;;;;;;;0.00;0.00;;;10.90;99.90;;;;;;5014652;28;20050;-85
2023/12/25 04:13:09;;;;;;;0.00;0.00;;;10.90;99.90;;;;;;5017988;28;20088;-85
2023/12/25 04:15:34;;;;;;;8.55;1.30;;;10.90;99.90;;;;;;5014723;28;20092;-85
2023/12/25 04:18:00;;;;;;;0.00;0.00;;;10.90;99.90;;;;;;4997430;28;20041;-85
2023/12/25 04:20:25;;;;;;;0.00;0.00;;;10.90;99.90;;;;;;4996652;28;20426;-85
2023/12/25 04:22:51;;;;;;;0.98;0.93;;;11.00;99.90;;;;;;4999660;28;20072;-85
2023/12/25 04:25:16;;;;;;;0.00;0.00;;;11.00;99.90;;;;;;5018510;28;20042;-85
2023/12/25 04:27:42;;;;;;;0.00;0.00;;;10.90;99.90;;;;;;5017863;28;20042;-85
2023/12/25 04:30:08;;;;;;;0.20;0.10;;;11.00;99.90;;;;;;5009808;28;20049;-85
2023/12/25 04:32:33;;;;;;;0.85;0.63;;;11.00;99.90;;;;;;5021791;28;20081;-85
2023/12/25 04:34:59;;;;;;;0.10;0.10;;;11.00;99.90;;;;;;5019687;28;20054;-85
2023/12/25 04:37:24;;;;;;;0.63;0.63;;;11.00;99.90;;;;;;5018383;28;20535;-85
2023/12/25 04:39:51;;;;;;;1.63;0.68;;;11.00;99.90;;;;;;5018871;28;20041;-85
2023/12/25 04:42:17;;;;;;;0.93;0.55;;;10.90;99.90;;;;;;5019189;28;20050;-85
2023/12/25 04:44:42;;;;;;;1.27;1.20;;;10.80;99.90;;;;;;5024186;28;20129;-85
2023/12/25 04:47:08;;;;;;;1.80;0.30;;;10.70;99.90;;;;;;5017611;28;20044;-85
2023/12/25 04:49:34;;;;;;;0.63;0.35;;;10.80;99.90;;;;;;5018160;28;20064;-85
2023/12/25 04:52:00;;;;;;;0.08;0.08;;;10.90;99.90;;;;;;5017692;28;20058;-85
2023/12/25 04:54:25;;;;;;;1.73;0.47;;;10.90;99.90;;;;;;5018175;28;20535;-85
2023/12/25 04:56:53;;;;;;;0.08;0.08;;;11.00;99.90;;;;;;5017552;28;20064;-85
2023/12/25 04:59:20;;;;;;;0.88;0.52;;;10.90;99.90;;;;;;5017350;28;20133;-85
2023/12/25 05:01:49;;;;;;;0.15;0.10;;;10.90;99.90;;;;;;5017076;28;20046;-85
2023/12/25 05:04:14;;;;;;;1.90;1.00;;;10.90;99.90;;;;;;5019718;28;20046;-85
2023/12/25 05:06:40;;;;;;;0.00;0.00;;;10.90;99.90;;;;;;5017380;28;20122;-85
2023/12/25 05:09:06;;;;;;;0.10;0.10;;;10.90;99.90;;;;;;5017751;28;20038;-84
2023/12/25 05:11:32;;;;;;;0.20;0.20;;;11.00;99.90;;;;;;4999793;28;20143;-85
2023/12/25 05:13:57;;;;;;;0.30;0.22;;;10.80;99.90;;;;;;5018996;28;20042;-84
2023/12/25 05:16:23;;;;;;;0.10;0.10;;;10.60;1.00;;;;;;5017432;28;20041;-85
2023/12/25 05:18:48;;;;;;;0.00;0.00;;;10.40;1.00;;;;;;5017402;28;20045;-85
2023/12/25 05:21:14;;;;;;;0.15;0.15;;;10.20;56.30;;;;;;5021205;28;20037;-85
2023/12/25 05:23:39;;;;;;;0.00;0.00;;;10.10;99.90;;;;;;5026086;28;20096;-85
2023/12/25 05:26:05;;;;;;;0.05;0.05;;;10.00;1.00;;;;;;5016859;28;20124;-85
2023/12/25 05:28:30;;;;;;;0.00;0.00;;;10.00;19.80;;;;;;5018422;28;20041;-84
2023/12/25 05:30:56;;;;;;;0.20;0.10;;;9.90;99.90;;;;;;5017940;28;20042;-85
2023/12/25 05:33:22;;;;;;;0.00;0.00;;;10.00;99.90;;;;;;5021096;28;20050;-85
2023/12/25 05:35:48;;;;;;;0.00;0.00;;;10.00;99.90;;;;;;5018151;28;20045;-85
2023/12/25 05:38:13;;;;;;;0.00;0.00;;;9.90;99.90;;;;;;5022833;28;20056;-84
2023/12/25 05:40:39;;;;;;;3.97;2.45;;;10.00;99.90;;;;;;5019632;28;20034;-85
2023/12/25 05:43:04;;;;;;;0.00;0.00;;;10.10;99.90;;;;;;5024993;28;20041;-85
2023/12/25 05:45:30;;;;;;;0.45;0.45;;;10.20;12.40;;;;;;5034631;28;20038;-85
2023/12/25 05:47:55;;;;;;;0.00;0.00;;;10.30;1.00;;;;;;5024171;28;20116;-84
2023/12/25 05:50:21;;;;;;;0.00;0.00;;;10.30;1.00;;;;;;5019243;28;20049;-84
2023/12/25 05:52:47;;;;;;;0.00;0.00;;;10.40;99.90;;;;;;5018448;28;20038;-85
2023/12/25 05:55:13;;;;;;;1.10;0.75;;;10.30;99.90;;;;;;5018625;28;20100;-84
2023/12/25 05:57:38;;;;;;;0.63;0.63;;;10.30;1.00;;;;;;5021293;28;20034;-84
2023/12/25 06:00:04;;;;;;;0.52;0.43;;;10.20;1.00;;;;;;5022958;28;20138;-84
2023/12/25 06:02:30;;;;;;;0.15;0.15;;;10.20;1.00;;;;;;5020055;28;20046;-84
2023/12/25 06:04:56;;;;;;;0.00;0.00;;;10.20;1.00;;;;;;5024996;28;20045;-85
2023/12/25 06:07:21;;;;;;;0.00;0.00;;;10.10;1.00;;;;;;5018865;28;20038;-85
2023/12/25 06:09:47;;;;;;;0.75;0.55;;;10.20;1.00;;;;;;5018707;28;20044;-84
2023/12/25 06:12:12;;;;;;;0.32;0.30;;;10.10;1.00;;;;;;5018760;28;20156;-84
2023/12/25 06:14:38;;;;;;;0.00;0.00;;;10.10;99.90;;;;;;5018337;28;20053;-85
2023/12/25 06:17:04;;;;;;;0.00;0.00;;;10.10;1.00;;;;;;5018675;28;20048;-85
2023/12/25 06:19:29;;;;;;;9.70;0.88;;;10.10;37.10;;;;;;5017241;28;20081;-85
2023/12/25 06:21:55;;;;;;;1.83;1.30;;;10.00;99.90;;;;;;5018121;28;20042;-84
2023/12/25 06:24:20;;;;;;;0.22;0.20;;;10.20;99.90;;;;;;5018726;28;20496;-85
2023/12/25 06:26:46;;;;;;;0.00;0.00;;;10.20;33.40;;;;;;5018925;28;20120;-85
2023/12/25 06:29:12;;;;;;;4.20;1.23;;;10.20;92.10;;;;;;5019862;28;20049;-86
2023/12/25 06:31:37;;;;;;;0.10;0.10;;;10.10;99.90;;;;;;5019449;28;20049;-84
2023/12/25 06:34:03;;;;;;;0.10;0.10;;;10.00;99.90;;;;;;5020243;28;20044;-85
2023/12/25 06:36:28;;;;;;;0.10;0.10;;;9.90;99.90;;;;;;5019976;28;20060;-84
2023/12/25 06:38:54;;;;;;;0.00;0.00;;;9.90;99.90;;;;;;5030437;28;20042;-85
2023/12/25 06:41:19;;;;;;;0.00;0.00;;;9.90;99.90;;;;;;5019355;28;20073;-84
2023/12/25 06:43:45;;;;;;;0.00;0.00;;;9.80;99.90;;;;;;5020989;28;20045;-84
2023/12/25 06:46:12;;;;;;;0.00;0.00;;;9.80;99.90;;;;;;5018481;28;20042;-84
2023/12/25 06:48:37;;;;;;;1.92;0.80;;;9.80;99.90;;;;;;5024185;28;20053;-85
2023/12/25 06:51:03;;;;;;;0.32;0.32;;;9.90;99.90;;;;;;5019253;28;20380;-84
2023/12/25 06:53:28;;;;;;;0.10;0.10;;;9.90;88.70;;;;;;5019702;28;20128;-84
2023/12/25 06:55:54;;;;;;;0.10;0.10;;;9.90;99.90;;;;;;5020226;28;20060;-84
2023/12/25 06:58:20;;;;;;;1.08;0.20;;;9.80;99.90;;;;;;5018497;28;20038;-84
2023/12/25 07:00:45;;;;;;;0.90;0.88;;;9.80;99.90;;;;;;5019336;28;20078;-84
2023/12/25 07:03:11;;;;;;;10.55;0.55;;;9.80;99.90;;;;;;5022461;28;20390;-85
2023/12/25 07:05:36;;;;;;;0.00;0.00;;;9.80;99.90;;;;;;5019250;28;20098;-85
2023/12/25 07:08:02;;;;;;;0.57;0.57;;;9.70;99.90;;;;;;5022637;28;20037;-84
2023/12/25 07:10:28;;;;;;;8.35;3.65;;;9.70;99.90;;;;;;5021688;28;20157;-85
2023/12/25 07:12:53;;;;;;;0.52;0.52;;;9.70;1.00;;;;;;5020256;28;20045;-84
2023/12/25 07:15:19;;;;;;;0.57;0.57;;;9.60;27.40;;;;;;5024318;28;20403;-84
2023/12/25 07:17:44;;;;;;;2.25;0.35;;;9.60;1.00;;;;;;5018223;28;20038;-85
2023/12/25 07:20:10;;;;;;;0.00;0.00;;;9.70;1.00;;;;;;5017712;28;20034;-84
2023/12/25 07:22:36;;;;;;;1.45;1.00;;;9.60;1.00;;;;;;5025318;28;20121;-84
2023/12/25 07:25:05;;;;;;;0.05;0.05;;;9.70;99.90;;;;;;5018506;28;20046;-85
2023/12/25 07:27:32;;;;;;;0.00;0.00;;;9.60;99.90;;;;;;5018974;28;20123;-85
2023/12/25 07:29:57;;;;;;;2.90;0.85;;;9.60;99.90;;;;;;5000940;28;20034;-84
2023/12/25 07:32:23;;;;;;;0.15;0.15;;;9.60;1.00;;;;;;5018741;28;20045;-84
2023/12/25 07:34:48;;;;;;;0.25;0.25;;;9.60;99.90;;;;;;5020862;28;20403;-85
2023/12/25 07:37:14;;;;;;;0.00;0.00;;;9.50;1.00;;;;;;5019107;28;20045;-84
2023/12/25 07:39:40;;;;;;;0.00;0.00;;;9.40;19.30;;;;;;5019743;28;20095;-85
2023/12/25 07:42:06;;;;;;;0.00;0.00;;;9.40;99.90;;;;;;5019147;28;20058;-85
2023/12/25 07:44:31;;;;;;;4.15;0.60;;;9.40;99.90;;;;;;5019055;28;20037;-84
2023/12/25 07:46:57;;;;;;;0.25;0.25;;;9.50;1.00;;;;;;5001972;28;20050;-85
2023/12/25 07:49:22;;;;;;;0.00;0.00;;;9.40;47.40;;;;;;5001812;28;20049;-84
2023/12/25 07:51:48;;;;;;;0.00;0.00;;;9.30;99.90;;;;;;5019237;28;20041;-84
2023/12/25 07:54:14;;;;;;;0.75;0.57;;;9.40;99.90;;;;;;5019453;28;20042;-84
2023/12/25 07:56:39;;;;;;;0.00;0.00;;;9.40;99.90;;;;;;5020689;28;20089;-84
2023/12/25 07:59:05;;;;;;;5.03;0.60;;;9.40;1.00;;;;;;5028369;28;20030;-85
2023/12/25 08:01:31;;;;;;;4.85;0.85;;;9.50;1.00;;;;;;5024478;28;20046;-85
2023/12/25 08:03:56;;;;;;;1.75;0.70;;;9.40;99.90;;;;;;5027957;28;20049;-85
2023/12/25 08:06:22;;;;;;;0.22;0.22;;;9.40;1.00;;;;;;5023693;28;20038;-84
2023/12/25 08:08:48;;;;;;;0.10;0.10;;;9.50;1.00;;;;;;5029400;28;20057;-84
2023/12/25 08:11:17;;;;;;;1.55;1.15;;;9.50;99.90;;;;;;5022527;28;20045;-85
2023/12/25 08:13:42;;;;;;;3.33;1.55;;;9.50;99.90;;;;;;5027108;28;20095;-85
2023/12/25 08:16:08;;;;;;;0.88;0.55;;;9.50;91.40;;;;;;5026617;28;20038;-84
2023/12/25 08:18:34;;;;;;;2.08;1.17;;;9.50;99.90;;;;;;5022478;28;20057;-85
2023/12/25 08:20:59;;;;;;;1.70;1.35;;;9.50;19.40;;;;;;5023159;28;20034;-84
2023/12/25 08:23:25;;;;;;;2.10;0.93;;;9.40;99.90;;;;;;5027258;28;20438;-84
2023/12/25 08:25:50;;;;;;;1.05;0.80;;;9.50;85.30;;;;;;5024485;28;20050;-84
2023/12/25 08:28:16;;;;;;;2.20;1.40;;;9.40;99.90;;;;;;5022909;28;20121;-84
2023/12/25 08:30:42;;;;;;;2.63;1.35;;;9.30;99.90;;;;;;5022958;28;20045;-85
2023/12/25 08:33:08;;;;;;;0.00;0.00;;;9.30;99.90;;;;;;5022217;28;20458;-84
2023/12/25 08:35:33;;;;;;;0.20;0.20;;;9.20;1.00;;;;;;5020988;28;20108;-84
2023/12/25 08:37:59;;;;;;;0.03;0.03;;;9.20;1.00;;;;;;5023377;28;20121;-84
2023/12/25 08:40:25;;;;;;;0.00;0.00;;;9.30;1.00;;;;;;5020893;28;20037;-84
2023/12/25 08:42:51;;;;;;;0.32;0.32;;;9.20;1.00;;;;;;5020393;28;20591;-84
2023/12/25 08:45:17;;;;;;;1.88;0.93;;;9.30;1.00;;;;;;5020503;28;20054;-84
2023/12/25 08:47:43;;;;;;;0.00;0.00;;;9.20;1.00;;;;;;5023815;28;20038;-84
2023/12/25 08:50:08;;;;;;;0.00;0.00;;;9.20;29.70;;;;;;5004310;28;20060;-83
2023/12/25 08:52:34;;;;;;;0.60;0.60;;;9.10;99.90;;;;;;5020341;28;20411;-84
2023/12/25 08:55:00;;;;;;;0.10;0.10;;;9.10;99.90;;;;;;5020226;28;20065;-84
2023/12/25 08:57:26;;;;;;;0.00;0.00;;;9.20;99.90;;;;;;5021036;28;20054;-84
2023/12/25 08:59:51;;;;;;;0.65;0.65;;;9.20;17.20;;;;;;5006462;28;20129;-85
2023/12/25 09:02:19;;;;;;;0.00;0.00;;;9.20;99.90;;;;;;5018638;28;20034;-86
2023/12/25 09:04:45;;;;;;;21.33;0.43;;;9.20;45.70;;;;;;5015824;28;20424;-86
2023/12/25 09:07:11;;;;;;;0.10;0.10;;;9.10;72.70;;;;;;5014693;28;20038;-86
2023/12/25 09:09:36;;;;;;;0.00;0.00;;;9.20;91.90;;;;;;5015174;28;20060;-86
2023/12/25 09:12:02;;;;;;;0.00;0.00;;;9.20;1.00;;;;;;5022263;28;20134;-86
2023/12/25 09:14:28;;;;;;;23.17;1.95;;;9.20;1.00;;;;;;5013436;28;20415;-86
2023/12/25 09:16:53;;;;;;;1.13;1.02;;;9.20;30.10;;;;;;4997881;28;20045;-86
2023/12/25 09:19:19;;;;;;;0.15;0.15;;;9.20;65.50;;;;;;4997731;28;20049;-85
2023/12/25 09:21:44;;;;;;;2.72;1.02;;;10.00;74.60;;;;;;5015453;28;20749;-86
2023/12/25 09:24:10;;;;;;;0.00;0.00;;;9.10;99.90;;;;;;5016231;28;20077;-85
2023/12/25 09:26:35;;;;;;;3.20;1.08;;;9.10;99.90;;;;;;5001540;28;20045;-85
2023/12/25 09:29:01;;;;;;;0.05;0.05;;;9.10;99.90;;;;;;5015883;28;20057;-87
2023/12/25 09:31:27;;;;;;;0.00;0.00;;;9.10;66.00;;;;;;5014620;28;20133;-86
2023/12/25 09:33:52;;;;;;;5.55;0.45;;;9.10;99.90;;;;;;5014200;28;20042;-86
2023/12/25 09:36:18;;;;;;;0.10;0.10;;;9.10;94.40;;;;;;5014676;28;20034;-87
2023/12/25 09:38:43;;;;;;;0.00;0.00;;;9.10;34.30;;;;;;5014089;28;20491;-86
2023/12/25 09:41:14;;;;;;;0.47;0.40;;;9.10;1.00;;;;;;4996247;28;20093;-86
2023/12/25 09:43:43;;;;;;;0.30;0.28;;;9.10;1.00;;;;;;5014663;28;20046;-86
2023/12/25 09:46:10;;;;;;;1.65;0.75;;;9.10;99.90;;;;;;5013728;28;20038;-87
2023/12/25 09:48:38;;;;;;;0.77;0.77;;;9.20;82.60;;;;;;5002098;28;20473;-87
2023/12/25 09:51:05;;;;;;;0.00;0.00;;;9.20;99.90;;;;;;5016742;28;20432;-87
2023/12/25 09:53:31;;;;;;;0.22;0.22;;;9.30;1.00;;;;;;5015115;28;20092;-87
2023/12/25 09:55:58;;;;;;;0.17;0.17;;;9.30;99.90;;;;;;5013750;28;20073;-88
2023/12/25 09:58:24;;;;;;;0.25;0.25;;;9.30;99.90;;;;;;5001182;28;20077;-87
2023/12/25 10:00:51;;;;;;;1.63;0.52;;;9.30;99.90;;;;;;4996933;28;20092;-87
2023/12/25 10:03:18;;;;;;;0.00;0.00;;;9.40;99.90;;;;;;5015092;28;20048;-87
2023/12/25 10:05:44;;;;;;;0.00;0.00;;;9.60;99.90;;;;;;4993304;28;20508;-88
2023/12/25 10:08:09;;;;;;;1.30;0.75;;;9.30;1.00;;;;;;4999177;28;20045;-87
2023/12/25 10:10:36;;;;;;;0.85;0.85;;;9.30;99.90;;;;;;5012548;28;20519;-87
2023/12/25 10:13:02;;;;;;;0.00;0.00;;;9.30;1.00;;;;;;5013005;28;20054;-87
2023/12/25 10:15:27;;;;;;;0.05;0.05;;;9.20;49.80;;;;;;5013821;28;20057;-87
2023/12/25 10:18:04;;;;;;;0.00;0.00;;;9.20;99.90;;;;;;5015138;28;20041;-88
2023/12/25 10:20:31;;;;;;;0.17;0.10;;;9.40;99.90;;;;;;5022874;28;20132;-87
2023/12/25 10:22:59;;;;;;;0.00;0.00;;;9.30;99.90;;;;;;5014158;28;20480;-87
2023/12/25 10:25:29;;;;;;;0.20;0.20;;;9.40;99.90;;;;;;5014394;28;20041;-87
2023/12/25 10:27:55;;;;;;;0.00;0.00;;;9.50;99.90;;;;;;5014211;28;20089;-87
2023/12/25 10:30:27;;;;;;;2.10;0.95;;;9.60;74.10;;;;;;4996328;28;20045;-87
2023/12/25 10:33:14;;;;;;;2.05;0.20;;;9.60;99.90;;;;;;4996240;28;20092;-87
2023/12/25 10:35:40;;;;;;;;;;;9.70;90.50;;;;;;5014324;28;20366;-87
2023/12/25 10:38:07;;;;;;;0.00;0.00;;;9.70;99.90;;;;;;4996522;28;20049;-87
2023/12/25 10:40:34;;;;;;;3.15;0.93;;;9.80;1.00;;;;;;5013856;28;20045;-87
2023/12/25 10:42:59;;;;;;;0.00;0.00;;;9.80;99.90;;;;;;5013912;28;20450;-87
2023/12/25 10:45:30;;;;;;;0.00;0.00;;;9.70;99.90;;;;;;5013601;28;20046;-87
2023/12/25 10:48:03;;;;;;;0.75;0.65;;;9.70;99.90;;;;;;5013964;28;20050;-87
2023/12/25 10:50:33;;;;;;;0.00;0.00;;;9.70;1.00;;;;;;5013641;28;20053;-87
2023/12/25 10:53:03;;;;;;;0.00;0.00;;;9.70;6.70;;;;;;5014232;28;20104;-87
2023/12/25 10:55:36;;;;;;;19.80;2.50;;;9.80;1.00;;;;;;5013686;28;20400;-87
2023/12/25 10:58:05;;;;;;;0.00;0.00;;;9.90;1.00;;;;;;5017544;28;20766;-87
2023/12/25 11:00:33;;;;;;;0.00;0.00;;;10.00;1.00;;;;;;4996493;28;20412;-87
2023/12/25 11:03:02;;;;;;;0.15;0.15;;;10.00;99.90;;;;;;5013630;28;20108;-87
2023/12/25 11:05:28;;;;;;;0.00;0.00;;;10.10;99.90;;;;;;5013552;28;20049;-87
2023/12/25 11:07:54;;;;;;;0.45;0.45;;;10.10;99.90;;;;;;5015777;28;20480;-87
2023/12/25 11:10:20;;;;;;;0.00;0.00;;;10.10;99.90;;;;;;4998987;28;20053;-87
2023/12/25 11:12:46;;;;;;;5.07;1.77;;;10.10;99.90;;;;;;5013622;28;20515;-87
2023/12/25 11:15:12;;;;;;;0.65;0.40;;;10.10;99.90;;;;;;5013213;28;20046;-87
2023/12/25 11:17:39;;;;;;;0.03;0.03;;;10.10;99.90;;;;;;5013909;28;20045;-87
2023/12/25 11:20:12;;;;;;;3.83;0.90;;;10.10;99.90;;;;;;5013167;28;20041;-87
2023/12/25 11:22:40;;;;;;;0.10;0.10;;;10.00;99.90;;;;;;5013116;28;20143;-87
2023/12/25 11:25:14;;;;;;;0.00;0.00;;;10.00;99.90;;;;;;5013431;28;20129;-85
2023/12/25 11:27:42;;;;;;;0.08;0.08;;;10.00;99.90;;;;;;5013184;28;20464;-86
2023/12/25 11:30:09;;;;;;;0.63;0.63;;;10.00;99.90;;;;;;4995339;28;20042;-87
2023/12/25 11:32:36;;;;;;;0.63;0.20;;;10.00;99.90;;;;;;4995778;28;20060;-87
2023/12/25 11:35:02;;;;;;;0.32;0.32;;;9.90;1.00;;;;;;5013106;28;20126;-86
2023/12/25 11:37:28;;;;;;;0.00;0.00;;;9.90;1.00;;;;;;5013206;28;20042;-86
2023/12/25 11:39:59;;;;;;;0.00;0.00;;;9.90;99.90;;;;;;4995229;28;20050;-85
2023/12/25 11:42:29;;;;;;;0.55;0.38;;;10.00;99.90;;;;;;5013051;28;20061;-85
2023/12/25 11:45:01;;;;;;;0.25;0.25;;;9.80;99.90;;;;;;5013200;28;20046;-85
2023/12/25 11:47:36;;;;;;;0.00;0.00;;;9.70;99.90;;;;;;4995950;28;20046;-85
2023/12/25 11:50:02;;;;;;;0.00;0.00;;;9.70;99.90;;;;;;5009776;28;20081;-85
2023/12/25 11:52:43;;;;;;;0.55;0.22;;;9.50;99.90;;;;;;4995415;28;20084;-85
2023/12/25 11:55:10;;;;;;;0.08;0.08;;;9.50;99.90;;;;;;4996055;28;20054;-85
2023/12/25 11:57:36;;;;;;;0.00;0.00;;;9.50;1.00;;;;;;5012759;28;20443;-86
2023/12/25 12:00:02;;;;;;;0.00;0.00;;;9.60;83.90;;;;;;5012851;28;20038;-87
2023/12/25 12:02:28;;;;;;;1.25;0.88;;;9.70;99.90;;;;;;5012995;28;20075;-86
2023/12/25 12:04:53;;;;;;;0.00;0.00;;;9.80;99.90;;;;;;5011240;28;20062;-85
2023/12/25 12:07:20;;;;;;;0.20;0.20;;;9.90;99.90;;;;;;5010813;28;20042;-85
2023/12/25 12:09:46;;;;;;;2.63;1.25;;;9.90;99.90;;;;;;5010375;28;20130;-85
2023/12/25 12:12:11;;;;;;;0.13;0.13;;;10.00;99.90;;;;;;5010655;28;20041;-87
2023/12/25 12:14:37;;;;;;;0.00;0.00;;;10.00;99.90;;;;;;4991982;28;20049;-87
2023/12/25 12:17:04;;;;;;;1.45;0.70;;;10.10;99.90;;;;;;4992726;28;20054;-87
2023/12/25 12:19:30;;;;;;;0.70;0.45;;;10.10;99.90;;;;;;5014676;28;20048;-87
2023/12/25 12:21:56;;;;;;;1.00;0.80;;;10.00;99.90;;;;;;5010392;28;20100;-87
2023/12/25 12:24:28;;;;;;;0.00;0.00;;;9.90;99.90;;;;;;5010645;28;20652;-87
2023/12/25 12:27:01;;;;;;;0.08;0.08;;;9.90;99.90;;;;;;4993259;28;20049;-86
2023/12/25 12:29:27;;;;;;;1.30;1.17;;;9.90;1.00;;;;;;4993870;28;20101;-85
2023/12/25 12:31:52;;;;;;;0.28;0.28;;;9.90;1.00;;;;;;5010389;28;20050;-85
2023/12/25 12:34:20;;;;;;;0.43;0.13;;;9.80;1.00;;;;;;5010773;28;20046;-86
2023/12/25 12:37:04;;;;;;;2.20;1.27;;;9.80;1.00;;;;;;5010651;28;20038;-85
2023/12/25 12:39:30;;;;;;;1.38;0.82;;;9.70;19.90;;;;;;5010508;28;20111;-85
2023/12/25 12:41:57;;;;;;;0.95;0.57;;;9.70;23.20;;;;;;5010048;28;20466;-85
2023/12/25 12:44:23;;;;;;;0.00;0.00;;;9.80;99.90;;;;;;4996441;28;20223;-85
2023/12/25 12:46:49;;;;;;;0.00;0.00;;;9.80;99.90;;;;;;5013827;28;20077;-85
2023/12/25 12:49:15;;;;;;;1.08;0.47;;;9.90;99.90;;;;;;5003688;28;20057;-85